CYGV

Havre St Pierre Airport

Havre St-Pierre, Quebec, Canada
METAR CYGV 171125Z AUTO 06008KT 9SM SCT016 BKN250 M07/M08 A2985 RMK SLP114
Observed Flight Rules
Dec-17 @ 11:25 UTC (42 minutes ago) Visual Flight Rules
Wind Visibility Clouds
60° at 8 knots 9 miles
  • Scattered at 1,600' AGL
  • Broken at 25,000' AGL
Temperatures Readings
Current -7°C / 19°F
Dewpoint -8°C / 18°F
Humidity 93%
Altimeter 29.85" Hg
Pressure 1011.4 hPa
Elevation 33
METAR CYGV 171125Z AUTO 06008KT 9SM SCT016 BKN250 M07/M08 A2985 RMK SLP114
Observed Flight Rules
Dec-17 @ 11:25 UTC
(42 minutes ago)
VFR
Wind Visibility
60° at 8 knots 9 miles
Clouds
  • Scattered at 1,600' AGL
  • Broken at 25,000' AGL
Temperature Dewpoint
-7°C / 19°F -8°C / 18°F
Humidity Altimeter Pressure
93% 29.85" Hg 1011.4 hPa